Check out our new BloomSky Weather System.

Active alerts


No alerts


Thunder radar  blitzortung!


Rain radar more information rain snow radar


Visit our other weather sites:

Template documentation
and downloads

And another site



Weather Underground History page Text

Daily Summary for May 3, 2017 Units:  English    Metric   Both
« Previous Day
Next Day »
Daily Weekly Monthly Yearly Custom
  High: Low: Average:
Temperature: 86.9 °F 64.0 °F 78 °F
Dew Point: 78.4 °F 54.9 °F 72.5 °F
Humidity: 97 % 66 % 84 %
Wind Speed: 17.0 mph 0.0 mph 5.2 mph
Wind Gust: 22.0 mph - -
Wind:- - South
Pressure: 29.91 in 29.65 in -
Precipitation: 0.30 in    
Historical Graphs
 
 
Tabular Data for May 3, 2017
Time Temperature Dew Point Pressure Wind Wind Speed Wind Gust Humidity Rainfall Rate (Hourly)
00:00 73.6 °F 68.4 °F 29.90 in East 8.0 mph 11.0 mph 84 % 0.00 in
00:05 73.6 °F 68.4 °F 29.90 in SE 2.0 mph 10.0 mph 84 % 0.00 in
00:10 73.6 °F 68.4 °F 29.89 in East 2.0 mph 10.0 mph 84 % 0.00 in
00:15 73.2 °F 68.2 °F 29.89 in ESE 2.0 mph 10.0 mph 84 % 0.00 in
00:20 73.2 °F 68.4 °F 29.88 in SE 2.0 mph 7.0 mph 85 % 0.00 in
00:25 73.2 °F 68.4 °F 29.88 in SE 4.0 mph 6.0 mph 85 % 0.00 in
00:30 73.0 °F 68.2 °F 29.89 in SE 3.0 mph 6.0 mph 85 % 0.00 in
00:35 73.0 °F 68.2 °F 29.88 in SE 2.0 mph 6.0 mph 85 % 0.00 in
00:40 73.0 °F 68.2 °F 29.89 in ESE 1.0 mph 6.0 mph 85 % 0.00 in
00:45 73.0 °F 68.5 °F 29.88 in SE 2.0 mph 6.0 mph 86 % 0.00 in
00:50 73.2 °F 68.7 °F 29.88 in Calm   6.0 mph 86 % 0.00 in
00:55 73.2 °F 68.7 °F 29.88 in East 4.0 mph 5.0 mph 86 % 0.00 in
01:00 73.2 °F 68.7 °F 29.88 in East 3.0 mph 4.0 mph 86 % 0.00 in
01:05 73.4 °F 68.9 °F 29.88 in ESE 3.0 mph 4.0 mph 86 % 0.00 in
01:10 73.6 °F 69.1 °F 29.88 in East 6.0 mph 8.0 mph 86 % 0.00 in
01:15 73.8 °F 69.3 °F 29.88 in East 4.0 mph 8.0 mph 86 % 0.00 in
01:20 73.9 °F 69.4 °F 29.87 in ESE 5.0 mph 8.0 mph 86 % 0.00 in
01:25 73.9 °F 69.4 °F 29.87 in East 4.0 mph 8.0 mph 86 % 0.00 in
01:30 74.1 °F 69.3 °F 29.87 in ENE 2.0 mph 7.0 mph 85 % 0.00 in
01:35 74.1 °F 69.3 °F 29.87 in ESE 5.0 mph 8.0 mph 85 % 0.00 in
01:40 74.3 °F 69.4 °F 29.87 in ESE 3.0 mph 8.0 mph 85 % 0.00 in
01:46 74.3 °F 69.4 °F 29.87 in SE 2.0 mph 8.0 mph 85 % 0.00 in
01:51 74.5 °F 70.0 °F 29.87 in East 6.0 mph 6.0 mph 86 % 0.00 in
01:56 74.5 °F 70.0 °F 29.86 in ESE 3.0 mph 6.0 mph 86 % 0.00 in
01:59 74.7 °F 70.2 °F 29.86 in ESE 4.0 mph 6.0 mph 86 % 0.00 in
02:01 74.7 °F 70.2 °F 29.86 in ESE 5.0 mph 6.0 mph 86 % 0.00 in
02:06 74.7 °F 70.2 °F 29.86 in ESE 7.0 mph 7.0 mph 86 % 0.00 in
02:11 74.8 °F 70.3 °F 29.86 in SSE 2.0 mph 9.0 mph 86 % 0.00 in
02:12 74.8 °F 70.3 °F 29.86 in SE 2.0 mph 9.0 mph 86 % 0.00 in
02:17 74.8 °F 70.3 °F 29.86 in SE 2.0 mph 9.0 mph 86 % 0.00 in
02:22 75.0 °F 70.5 °F 29.86 in SSE 3.0 mph 10.0 mph 86 % 0.00 in
02:27 75.0 °F 70.5 °F 29.86 in ESE 6.0 mph 10.0 mph 86 % 0.00 in
02:32 75.2 °F 70.7 °F 29.86 in SSE 4.0 mph 10.0 mph 86 % 0.00 in
02:37 75.4 °F 70.9 °F 29.85 in SE 5.0 mph 11.0 mph 86 % 0.00 in
02:42 75.4 °F 71.2 °F 29.85 in ESE 4.0 mph 11.0 mph 87 % 0.00 in
02:47 75.4 °F 71.2 °F 29.85 in ESE 6.0 mph 13.0 mph 87 % 0.00 in
02:52 75.4 °F 71.2 °F 29.85 in SE 6.0 mph 13.0 mph 87 % 0.00 in
02:57 75.4 °F 71.2 °F 29.84 in SE 3.0 mph 13.0 mph 87 % 0.00 in
03:02 75.4 °F 71.6 °F 29.84 in SE 6.0 mph 12.0 mph 88 % 0.00 in
03:07 75.4 °F 71.6 °F 29.84 in SE 3.0 mph 9.0 mph 88 % 0.00 in
03:12 75.4 °F 71.6 °F 29.84 in SSE 5.0 mph 9.0 mph 88 % 0.00 in
03:17 75.4 °F 71.6 °F 29.84 in SE 4.0 mph 11.0 mph 88 % 0.00 in
03:22 75.4 °F 71.6 °F 29.83 in East 3.0 mph 11.0 mph 88 % 0.00 in
03:27 75.4 °F 71.6 °F 29.83 in ESE 2.0 mph 11.0 mph 88 % 0.00 in
03:32 75.4 °F 71.6 °F 29.83 in ESE 3.0 mph 7.0 mph 88 % 0.00 in
03:37 75.4 °F 72.0 °F 29.83 in ESE 3.0 mph 7.0 mph 89 % 0.00 in
03:42 75.4 °F 72.0 °F 29.83 in East 1.0 mph 8.0 mph 89 % 0.00 in
03:47 75.4 °F 72.0 °F 29.82 in SE 1.0 mph 8.0 mph 89 % 0.00 in
03:52 75.2 °F 72.1 °F 29.82 in SE 1.0 mph 8.0 mph 90 % 0.00 in
03:57 75.2 °F 72.1 °F 29.82 in SE 3.0 mph 6.0 mph 90 % 0.00 in
04:02 75.0 °F 72.0 °F 29.82 in ESE 4.0 mph 7.0 mph 90 % 0.00 in
04:07 75.0 °F 72.0 °F 29.82 in SE 2.0 mph 7.0 mph 90 % 0.00 in
04:12 75.2 °F 72.3 °F 29.82 in East 2.0 mph 7.0 mph 91 % 0.00 in
04:17 75.2 °F 72.3 °F 29.82 in SE 1.0 mph 6.0 mph 91 % 0.00 in
04:22 75.2 °F 72.3 °F 29.82 in ESE 1.0 mph 6.0 mph 91 % 0.00 in
04:27 75.2 °F 72.3 °F 29.82 in SE 3.0 mph 6.0 mph 91 % 0.00 in
04:32 75.0 °F 72.5 °F 29.82 in SE 1.0 mph 6.0 mph 92 % 0.00 in
04:37 75.0 °F 72.5 °F 29.82 in ESE 1.0 mph 6.0 mph 92 % 0.00 in
04:42 75.0 °F 72.9 °F 29.82 in SE 3.0 mph 6.0 mph 93 % 0.00 in
04:47 74.8 °F 72.7 °F 29.81 in ESE 1.0 mph 6.0 mph 93 % 0.00 in
04:52 74.8 °F 72.7 °F 29.81 in SE 1.0 mph 7.0 mph 93 % 0.00 in
04:57 74.8 °F 73.0 °F 29.81 in ESE 1.0 mph 7.0 mph 94 % 0.00 in
05:02 74.8 °F 73.0 °F 29.81 in ESE 6.0 mph 7.0 mph 94 % 0.00 in
05:07 74.8 °F 73.0 °F 29.81 in SSW 1.0 mph 6.0 mph 94 % 0.00 in
05:12 74.7 °F 72.9 °F 29.81 in Calm   6.0 mph 94 % 0.00 in
05:17 74.7 °F 72.9 °F 29.81 in SE 1.0 mph 6.0 mph 94 % 0.01 in
05:22 74.7 °F 73.2 °F 29.81 in ESE 1.0 mph 4.0 mph 95 % 0.01 in
05:23 74.7 °F 73.2 °F 29.80 in Calm   4.0 mph 95 % 0.01 in
05:28 74.7 °F 73.2 °F 29.80 in SE 2.0 mph 4.0 mph 95 % 0.02 in
05:33 74.7 °F 73.2 °F 29.81 in SE 3.0 mph 6.0 mph 95 % 0.03 in
05:38 74.7 °F 73.2 °F 29.81 in Calm   6.0 mph 95 % 0.03 in
05:43 74.7 °F 73.4 °F 29.81 in Calm   6.0 mph 96 % 0.05 in
05:48 74.7 °F 73.4 °F 29.81 in ESE 3.0 mph 5.0 mph 96 % 0.05 in
05:53 74.7 °F 73.4 °F 29.80 in ESE 2.0 mph 5.0 mph 96 % 0.05 in
05:58 74.8 °F 73.6 °F 29.80 in SE 2.0 mph 9.0 mph 96 % 0.05 in
06:03 74.8 °F 73.6 °F 29.80 in ESE 2.0 mph 9.0 mph 96 % 0.05 in
06:08 74.8 °F 73.6 °F 29.80 in SE 2.0 mph 9.0 mph 96 % 0.05 in
06:13 74.8 °F 73.6 °F 29.81 in SE 1.0 mph 6.0 mph 96 % 0.05 in
06:18 74.8 °F 73.6 °F 29.81 in SSE 1.0 mph 6.0 mph 96 % 0.04 in
06:23 75.0 °F 74.1 °F 29.81 in ESE 2.0 mph 6.0 mph 97 % 0.04 in
06:28 75.0 °F 74.1 °F 29.81 in Calm   6.0 mph 97 % 0.03 in
06:33 75.0 °F 74.1 °F 29.81 in SE 2.0 mph 6.0 mph 97 % 0.02 in
06:38 75.2 °F 74.3 °F 29.81 in SSE 3.0 mph 5.0 mph 97 % 0.01 in
06:43 75.2 °F 74.3 °F 29.81 in Calm   5.0 mph 97 % 0.00 in
06:48 75.4 °F 74.5 °F 29.81 in SSW 2.0 mph 5.0 mph 97 % 0.00 in
06:53 75.4 °F 74.5 °F 29.81 in SSE 2.0 mph 5.0 mph 97 % 0.00 in
06:58 75.6 °F 74.7 °F 29.80 in South 3.0 mph 5.0 mph 97 % 0.00 in
07:03 75.6 °F 74.7 °F 29.80 in SW 3.0 mph 8.0 mph 97 % 0.00 in
07:09 75.6 °F 74.7 °F 29.81 in SSE 5.0 mph 8.0 mph 97 % 0.00 in
07:14 75.6 °F 74.3 °F 29.81 in South 3.0 mph 8.0 mph 96 % 0.00 in
07:19 75.6 °F 74.7 °F 29.81 in SSE 2.0 mph 7.0 mph 97 % 0.00 in
07:24 75.7 °F 74.8 °F 29.81 in South 2.0 mph 7.0 mph 97 % 0.00 in
07:29 75.7 °F 74.8 °F 29.81 in SSE 2.0 mph 5.0 mph 97 % 0.00 in
07:34 75.7 °F 74.8 °F 29.80 in Calm   5.0 mph 97 % 0.00 in
07:39 75.7 °F 74.8 °F 29.80 in South 1.0 mph 5.0 mph 97 % 0.00 in
07:44 75.9 °F 75.0 °F 29.80 in SSE 2.0 mph 5.0 mph 97 % 0.00 in
07:49 75.9 °F 75.0 °F 29.80 in SE 1.0 mph 4.0 mph 97 % 0.00 in
07:54 76.1 °F 74.8 °F 29.80 in South 2.0 mph 5.0 mph 96 % 0.00 in
07:59 76.1 °F 75.2 °F 29.80 in South 4.0 mph 5.0 mph 97 % 0.00 in
08:04 76.3 °F 75.0 °F 29.80 in South 2.0 mph 6.0 mph 96 % 0.00 in
08:09 76.5 °F 75.2 °F 29.81 in SE 3.0 mph 6.0 mph 96 % 0.00 in
08:14 76.6 °F 75.4 °F 29.81 in SSE 3.0 mph 6.0 mph 96 % 0.00 in
08:19 76.8 °F 75.6 °F 29.80 in SSE 3.0 mph 5.0 mph 96 % 0.00 in
08:24 76.8 °F 75.6 °F 29.80 in SSE 3.0 mph 7.0 mph 96 % 0.00 in
08:29 77.0 °F 75.7 °F 29.80 in SSE 2.0 mph 7.0 mph 96 % 0.00 in
08:34 77.2 °F 75.9 °F 29.79 in South 2.0 mph 8.0 mph 96 % 0.00 in
08:39 77.4 °F 75.7 °F 29.79 in South 2.0 mph 8.0 mph 95 % 0.00 in
08:44 77.5 °F 75.9 °F 29.79 in SSE 3.0 mph 8.0 mph 95 % 0.00 in
08:49 77.5 °F 75.9 °F 29.79 in SW 2.0 mph 9.0 mph 95 % 0.00 in
08:54 77.7 °F 75.9 °F 29.79 in SSW 4.0 mph 9.0 mph 94 % 0.00 in
08:59 77.9 °F 76.1 °F 29.79 in SSE 3.0 mph 9.0 mph 94 % 0.00 in
09:04 78.1 °F 76.3 °F 29.79 in SSW 6.0 mph 9.0 mph 94 % 0.00 in
09:09 78.3 °F 76.5 °F 29.78 in South 4.0 mph 10.0 mph 94 % 0.00 in
09:15 78.4 °F 76.3 °F 29.78 in SSW 8.0 mph 10.0 mph 93 % 0.00 in
09:20 78.8 °F 76.6 °F 29.78 in South 3.0 mph 10.0 mph 93 % 0.00 in
09:25 79.3 °F 76.8 °F 29.78 in SSW 8.0 mph 12.0 mph 92 % 0.00 in
09:30 79.5 °F 76.6 °F 29.78 in South 4.0 mph 12.0 mph 91 % 0.00 in
09:35 80.1 °F 76.5 °F 29.78 in South 8.0 mph 15.0 mph 89 % 0.00 in
09:40 80.2 °F 76.3 °F 29.78 in SSE 6.0 mph 15.0 mph 88 % 0.00 in
09:42 80.4 °F 76.5 °F 29.78 in SSE 6.0 mph 15.0 mph 88 % 0.00 in
09:47 80.6 °F 76.6 °F 29.78 in SW 6.0 mph 15.0 mph 88 % 0.00 in
09:52 81.0 °F 76.5 °F 29.78 in SSW 6.0 mph 14.0 mph 86 % 0.00 in
09:57 81.0 °F 76.5 °F 29.77 in SSE 6.0 mph 15.0 mph 86 % 0.00 in
10:02 81.3 °F 76.6 °F 29.77 in SSE 5.0 mph 15.0 mph 86 % 0.00 in
10:07 81.5 °F 76.3 °F 29.77 in SW 5.0 mph 16.0 mph 84 % 0.00 in
10:12 81.3 °F 76.1 °F 29.76 in SSW 8.0 mph 16.0 mph 84 % 0.00 in
10:17 81.3 °F 76.5 °F 29.77 in SSW 6.0 mph 16.0 mph 85 % 0.00 in
10:22 81.7 °F 75.9 °F 29.77 in SSW 8.0 mph 14.0 mph 83 % 0.00 in
10:27 81.7 °F 75.9 °F 29.76 in SW 4.0 mph 14.0 mph 83 % 0.00 in
10:32 82.0 °F 76.3 °F 29.76 in SW 15.0 mph 15.0 mph 83 % 0.00 in
10:37 82.6 °F 76.1 °F 29.77 in South 10.0 mph 17.0 mph 81 % 0.00 in
10:42 82.9 °F 76.5 °F 29.76 in South 8.0 mph 18.0 mph 81 % 0.00 in
10:47 83.7 °F 77.2 °F 29.77 in South 4.0 mph 19.0 mph 81 % 0.00 in
10:52 84.4 °F 76.8 °F 29.77 in SSW 6.0 mph 19.0 mph 78 % 0.00 in
10:57 84.6 °F 76.5 °F 29.76 in WSW 6.0 mph 19.0 mph 77 % 0.00 in
11:02 84.6 °F 76.1 °F 29.76 in SSE 7.0 mph 16.0 mph 76 % 0.00 in
11:07 84.4 °F 75.9 °F 29.77 in SSW 8.0 mph 14.0 mph 76 % 0.00 in
11:12 84.4 °F 76.5 °F 29.77 in SSW 3.0 mph 14.0 mph 77 % 0.00 in
11:17 84.6 °F 76.1 °F 29.77 in SW 11.0 mph 14.0 mph 76 % 0.00 in
11:22 84.6 °F 75.4 °F 29.77 in SW 7.0 mph 18.0 mph 74 % 0.00 in
11:27 84.6 °F 75.7 °F 29.77 in SW 11.0 mph 19.0 mph 75 % 0.00 in
11:32 84.0 °F 74.8 °F 29.77 in SSW 7.0 mph 19.0 mph 74 % 0.00 in
11:37 83.8 °F 75.0 °F 29.77 in South 11.0 mph 19.0 mph 75 % 0.00 in
11:42 83.7 °F 75.2 °F 29.77 in SSW 6.0 mph 18.0 mph 76 % 0.00 in
11:47 83.7 °F 75.2 °F 29.76 in SW 8.0 mph 17.0 mph 76 % 0.00 in
11:52 84.2 °F 75.7 °F 29.76 in SSW 5.0 mph 17.0 mph 76 % 0.00 in
11:57 84.7 °F 75.6 °F 29.75 in SSW 12.0 mph 17.0 mph 74 % 0.00 in
12:02 85.1 °F 76.6 °F 29.75 in South 7.0 mph 17.0 mph 76 % 0.00 in
12:07 85.5 °F 76.3 °F 29.75 in SW 8.0 mph 17.0 mph 74 % 0.00 in
12:13 85.8 °F 76.6 °F 29.75 in South 4.0 mph 17.0 mph 74 % 0.00 in
12:18 85.8 °F 76.1 °F 29.75 in SSW 6.0 mph 16.0 mph 73 % 0.00 in
12:21 85.5 °F 75.7 °F 29.75 in South 5.0 mph 16.0 mph 73 % 0.00 in
12:26 85.1 °F 75.4 °F 29.75 in SW 9.0 mph 19.0 mph 73 % 0.00 in
12:31 85.3 °F 76.1 °F 29.75 in SSW 3.0 mph 19.0 mph 74 % 0.00 in
12:36 85.8 °F 77.0 °F 29.75 in SSE 6.0 mph 19.0 mph 75 % 0.00 in
12:41 86.2 °F 76.5 °F 29.75 in South 17.0 mph 17.0 mph 73 % 0.00 in
12:46 86.0 °F 75.9 °F 29.75 in South 8.0 mph 17.0 mph 72 % 0.00 in
12:51 85.8 °F 76.1 °F 29.74 in SW 7.0 mph 17.0 mph 73 % 0.00 in
12:56 86.2 °F 76.5 °F 29.75 in SSE 6.0 mph 18.0 mph 73 % 0.00 in
13:01 86.2 °F 76.1 °F 29.74 in SSW 10.0 mph 18.0 mph 72 % 0.00 in
13:06 85.6 °F 75.6 °F 29.74 in SSW 6.0 mph 18.0 mph 72 % 0.00 in
13:11 85.3 °F 75.6 °F 29.74 in SSW 15.0 mph 18.0 mph 73 % 0.00 in
13:16 85.1 °F 75.4 °F 29.74 in SE 5.0 mph 18.0 mph 73 % 0.00 in
13:21 85.3 °F 76.1 °F 29.74 in SSW 3.0 mph 19.0 mph 74 % 0.00 in
13:26 86.2 °F 76.1 °F 29.73 in SE 9.0 mph 19.0 mph 72 % 0.00 in
13:28 86.5 °F 75.9 °F 29.74 in SSW 17.0 mph 19.0 mph 71 % 0.00 in
13:31 86.5 °F 75.9 °F 29.73 in SW 10.0 mph 19.0 mph 71 % 0.00 in
13:36 86.9 °F 76.3 °F 29.73 in South 6.0 mph 17.0 mph 71 % 0.00 in
13:41 86.9 °F 75.9 °F 29.73 in SSW 6.0 mph 17.0 mph 70 % 0.00 in
13:46 86.5 °F 75.6 °F 29.73 in South 10.0 mph 17.0 mph 70 % 0.00 in
13:51 86.2 °F 76.1 °F 29.73 in SSW 4.0 mph 15.0 mph 72 % 0.00 in
13:56 86.4 °F 76.3 °F 29.73 in SSW 11.0 mph 18.0 mph 72 % 0.00 in
14:01 85.8 °F 76.1 °F 29.73 in SSW 5.0 mph 18.0 mph 73 % 0.00 in
14:06 85.6 °F 76.5 °F 29.73 in SSW 3.0 mph 18.0 mph 74 % 0.00 in
14:11 86.0 °F 76.3 °F 29.73 in SSW 4.0 mph 18.0 mph 73 % 0.00 in
14:16 86.2 °F 76.1 °F 29.73 in SSW 6.0 mph 17.0 mph 72 % 0.00 in
14:21 85.6 °F 75.6 °F 29.74 in South 8.0 mph 12.0 mph 72 % 0.00 in
14:26 85.3 °F 76.1 °F 29.73 in South 5.0 mph 12.0 mph 74 % 0.00 in
14:31 84.9 °F 75.7 °F 29.73 in SSW 6.0 mph 16.0 mph 74 % 0.00 in
14:36 84.9 °F 76.1 °F 29.73 in South 5.0 mph 16.0 mph 75 % 0.00 in
14:41 84.9 °F 76.1 °F 29.72 in SSW 6.0 mph 16.0 mph 75 % 0.00 in
14:46 84.6 °F 76.5 °F 29.70 in SE 11.0 mph 12.0 mph 77 % 0.00 in
14:50 83.7 °F 76.8 °F 29.70 in South 6.0 mph 12.0 mph 80 % 0.00 in
14:52 83.5 °F 77.4 °F 29.70 in WNW 2.0 mph 12.0 mph 82 % 0.00 in
14:57 82.8 °F 77.7 °F 29.71 in NW 3.0 mph 12.0 mph 85 % 0.00 in
15:02 82.8 °F 78.4 °F 29.70 in South 6.0 mph 12.0 mph 87 % 0.00 in
15:07 82.2 °F 77.9 °F 29.70 in South 8.0 mph 12.0 mph 87 % 0.00 in
15:12 82.2 °F 77.2 °F 29.70 in SW 4.0 mph 11.0 mph 85 % 0.00 in
15:17 82.8 °F 77.4 °F 29.70 in WNW 4.0 mph 11.0 mph 84 % 0.00 in
15:22 83.3 °F 77.5 °F 29.70 in SSE 10.0 mph 11.0 mph 83 % 0.00 in
15:27 84.4 °F 77.9 °F 29.69 in SSW 7.0 mph 13.0 mph 81 % 0.00 in
15:32 84.9 °F 78.1 °F 29.69 in South 7.0 mph 13.0 mph 80 % 0.00 in
15:37 84.7 °F 76.6 °F 29.69 in SSW 8.0 mph 18.0 mph 77 % 0.00 in
15:42 84.4 °F 76.5 °F 29.69 in SSW 5.0 mph 18.0 mph 77 % 0.00 in
15:47 84.6 °F 77.0 °F 29.69 in South 9.0 mph 18.0 mph 78 % 0.00 in
15:52 84.7 °F 76.6 °F 29.69 in ESE 9.0 mph 15.0 mph 77 % 0.00 in
15:57 85.1 °F 76.3 °F 29.69 in SSW 7.0 mph 16.0 mph 75 % 0.00 in
16:02 85.6 °F 77.2 °F 29.68 in SE 6.0 mph 18.0 mph 76 % 0.00 in
16:07 86.0 °F 76.3 °F 29.68 in South 9.0 mph 18.0 mph 73 % 0.00 in
16:12 85.8 °F 76.6 °F 29.67 in West 7.0 mph 18.0 mph 74 % 0.00 in
16:17 86.0 °F 76.8 °F 29.67 in SSW 15.0 mph 20.0 mph 74 % 0.00 in
16:22 85.8 °F 76.6 °F 29.66 in SSW 6.0 mph 20.0 mph 74 % 0.00 in
16:27 86.2 °F 76.5 °F 29.66 in SSE 4.0 mph 20.0 mph 73 % 0.00 in
16:32 85.8 °F 76.6 °F 29.66 in SSW 4.0 mph 17.0 mph 74 % 0.00 in
16:37 86.2 °F 76.5 °F 29.66 in South 5.0 mph 16.0 mph 73 % 0.00 in
16:42 86.2 °F 76.1 °F 29.66 in South 7.0 mph 16.0 mph 72 % 0.00 in
16:43 86.2 °F 76.5 °F 29.66 in SW 7.0 mph 16.0 mph 73 % 0.00 in
16:48 85.8 °F 76.1 °F 29.66 in South 9.0 mph 15.0 mph 73 % 0.00 in
16:53 85.8 °F 76.1 °F 29.66 in South 8.0 mph 15.0 mph 73 % 0.00 in
16:58 86.2 °F 77.0 °F 29.65 in SSW 6.0 mph 15.0 mph 74 % 0.00 in
17:03 86.2 °F 76.1 °F 29.65 in SW 9.0 mph 14.0 mph 72 % 0.00 in
17:08 85.8 °F 76.1 °F 29.65 in South 7.0 mph 18.0 mph 73 % 0.00 in
17:11 85.8 °F 76.6 °F 29.65 in SSW 6.0 mph 18.0 mph 74 % 0.00 in
17:16 85.6 °F 76.5 °F 29.65 in SSE 4.0 mph 18.0 mph 74 % 0.00 in
17:17 85.6 °F 76.5 °F 29.65 in ESE 9.0 mph 18.0 mph 74 % 0.00 in
17:22 85.8 °F 76.6 °F 29.66 in West 6.0 mph 17.0 mph 74 % 0.00 in
17:27 85.8 °F 76.6 °F 29.66 in SW 8.0 mph 17.0 mph 74 % 0.00 in
17:32 85.6 °F 76.5 °F 29.66 in SSE 4.0 mph 17.0 mph 74 % 0.00 in
17:37 85.5 °F 76.6 °F 29.65 in SE 9.0 mph 17.0 mph 75 % 0.00 in
17:42 85.1 °F 76.3 °F 29.65 in SSW 10.0 mph 15.0 mph 75 % 0.00 in
17:47 84.9 °F 76.5 °F 29.65 in South 4.0 mph 15.0 mph 76 % 0.00 in
17:52 85.1 °F 76.3 °F 29.65 in South 11.0 mph 14.0 mph 75 % 0.00 in
17:57 85.1 °F 76.3 °F 29.65 in SE 8.0 mph 16.0 mph 75 % 0.00 in
18:02 85.3 °F 76.5 °F 29.65 in South 9.0 mph 16.0 mph 75 % 0.00 in
18:07 85.3 °F 76.5 °F 29.65 in SW 8.0 mph 16.0 mph 75 % 0.00 in
18:12 85.3 °F 76.5 °F 29.65 in SE 3.0 mph 14.0 mph 75 % 0.00 in
18:17 85.1 °F 76.6 °F 29.65 in SSE 2.0 mph 14.0 mph 76 % 0.00 in
18:22 84.9 °F 76.5 °F 29.66 in WSW 2.0 mph 14.0 mph 76 % 0.00 in
18:23 84.9 °F 76.5 °F 29.66 in SW 4.0 mph 14.0 mph 76 % 0.00 in
18:28 84.7 °F 76.3 °F 29.66 in SSW 4.0 mph 13.0 mph 76 % 0.00 in
18:33 84.4 °F 75.9 °F 29.66 in South 4.0 mph 11.0 mph 76 % 0.00 in
18:38 84.2 °F 76.3 °F 29.66 in SW 3.0 mph 11.0 mph 77 % 0.00 in
18:43 84.2 °F 76.3 °F 29.65 in SW 7.0 mph 11.0 mph 77 % 0.00 in
18:48 84.4 °F 76.5 °F 29.65 in WSW 4.0 mph 14.0 mph 77 % 0.00 in
18:53 84.2 °F 76.3 °F 29.65 in South 7.0 mph 14.0 mph 77 % 0.00 in
18:58 84.0 °F 76.5 °F 29.66 in South 7.0 mph 16.0 mph 78 % 0.00 in
19:03 83.8 °F 76.3 °F 29.66 in SW 7.0 mph 16.0 mph 78 % 0.00 in
19:08 83.8 °F 76.3 °F 29.65 in SSE 6.0 mph 16.0 mph 78 % 0.00 in
19:11 83.7 °F 76.1 °F 29.65 in SSW 6.0 mph 12.0 mph 78 % 0.00 in
19:16 83.7 °F 76.1 °F 29.67 in Calm   12.0 mph 78 % 0.00 in
19:21 82.8 °F 70.2 °F 29.70 in NNW 12.0 mph 15.0 mph 66 % 0.00 in
19:26 79.7 °F 67.3 °F 29.70 in NW 5.0 mph 19.0 mph 66 % 0.00 in
19:31 78.1 °F 67.1 °F 29.72 in NW 9.0 mph 19.0 mph 69 % 0.00 in
19:36 76.8 °F 67.8 °F 29.73 in NNE 9.0 mph 19.0 mph 74 % 0.00 in
19:41 74.1 °F 66.7 °F 29.73 in West 9.0 mph 22.0 mph 78 % 0.01 in
19:46 72.0 °F 67.3 °F 29.73 in NNW 7.0 mph 22.0 mph 85 % 0.01 in
19:51 70.7 °F 67.3 °F 29.74 in NNW 4.0 mph 22.0 mph 89 % 0.02 in
19:56 70.2 °F 67.5 °F 29.75 in WNW 7.0 mph 22.0 mph 91 % 0.04 in
20:01 70.0 °F 67.3 °F 29.76 in WNW 5.0 mph 11.0 mph 91 % 0.05 in
20:06 69.8 °F 67.3 °F 29.77 in NW 6.0 mph 13.0 mph 92 % 0.05 in
20:11 69.6 °F 67.3 °F 29.76 in NNW 3.0 mph 13.0 mph 92 % 0.13 in
20:16 69.3 °F 67.1 °F 29.76 in NW 4.0 mph 16.0 mph 93 % 0.21 in
20:21 68.7 °F 66.9 °F 29.75 in NNW 5.0 mph 16.0 mph 94 % 0.25 in
20:26 68.5 °F 67.1 °F 29.76 in WNW 5.0 mph 16.0 mph 95 % 0.25 in
20:31 68.4 °F 66.9 °F 29.78 in WNW 4.0 mph 15.0 mph 95 % 0.25 in
20:36 68.4 °F 66.9 °F 29.77 in WNW 4.0 mph 15.0 mph 95 % 0.25 in
20:41 68.2 °F 66.7 °F 29.78 in NNE 9.0 mph 13.0 mph 95 % 0.24 in
20:46 68.2 °F 66.7 °F 29.78 in NNW 9.0 mph 13.0 mph 95 % 0.24 in
20:51 68.4 °F 66.9 °F 29.78 in NW 8.0 mph 13.0 mph 95 % 0.23 in
20:56 68.4 °F 66.9 °F 29.78 in SW 1.0 mph 13.0 mph 95 % 0.21 in
21:01 68.4 °F 66.9 °F 29.80 in NNW 4.0 mph 13.0 mph 95 % 0.20 in
21:06 68.4 °F 66.9 °F 29.82 in North 2.0 mph 12.0 mph 95 % 0.20 in
21:11 68.4 °F 66.9 °F 29.83 in Calm   10.0 mph 95 % 0.12 in
21:16 68.4 °F 66.9 °F 29.83 in NNW 1.0 mph 5.0 mph 95 % 0.03 in
21:21 68.5 °F 67.1 °F 29.83 in NNE 2.0 mph 6.0 mph 95 % 0.00 in
21:26 68.5 °F 67.1 °F 29.82 in NW 2.0 mph 7.0 mph 95 % 0.00 in
21:31 68.5 °F 67.1 °F 29.82 in WNW 1.0 mph 12.0 mph 95 % 0.00 in
21:36 68.7 °F 66.9 °F 29.83 in West 6.0 mph 12.0 mph 94 % 0.00 in
21:42 68.7 °F 66.6 °F 29.84 in NNE 4.0 mph 12.0 mph 93 % 0.00 in
21:47 68.9 °F 66.7 °F 29.84 in WNW 3.0 mph 11.0 mph 93 % 0.00 in
21:52 69.1 °F 66.9 °F 29.86 in NNW 6.0 mph 9.0 mph 93 % 0.00 in
21:57 69.1 °F 66.7 °F 29.87 in NW 2.0 mph 8.0 mph 92 % 0.00 in
22:02 69.3 °F 66.6 °F 29.87 in NW 2.0 mph 8.0 mph 91 % 0.00 in
22:07 69.3 °F 66.2 °F 29.87 in NW 3.0 mph 12.0 mph 90 % 0.00 in
22:12 69.4 °F 66.4 °F 29.88 in NW 2.0 mph 12.0 mph 90 % 0.00 in
22:17 69.4 °F 66.0 °F 29.88 in NNW 5.0 mph 12.0 mph 89 % 0.00 in
22:22 69.4 °F 65.7 °F 29.88 in NW 4.0 mph 9.0 mph 88 % 0.00 in
22:27 69.3 °F 64.9 °F 29.88 in North 8.0 mph 14.0 mph 86 % 0.00 in
22:32 69.3 °F 64.6 °F 29.89 in NW 14.0 mph 19.0 mph 85 % 0.00 in
22:37 69.1 °F 63.3 °F 29.90 in NNE 12.0 mph 19.0 mph 82 % 0.00 in
22:42 68.5 °F 61.7 °F 29.90 in NNW 10.0 mph 19.0 mph 79 % 0.00 in
22:47 68.2 °F 59.2 °F 29.90 in NNW 13.0 mph 16.0 mph 73 % 0.00 in
22:52 67.6 °F 58.6 °F 29.90 in NNW 9.0 mph 18.0 mph 73 % 0.00 in
22:57 67.3 °F 58.6 °F 29.90 in NW 11.0 mph 18.0 mph 74 % 0.00 in
23:02 66.7 °F 58.1 °F 29.91 in NNE 13.0 mph 18.0 mph 74 % 0.00 in
23:07 66.6 °F 57.2 °F 29.90 in WNW 8.0 mph 16.0 mph 72 % 0.00 in
23:12 66.4 °F 56.3 °F 29.90 in NW 10.0 mph 19.0 mph 70 % 0.00 in
23:17 66.2 °F 55.8 °F 29.91 in North 10.0 mph 20.0 mph 69 % 0.00 in
23:22 65.8 °F 55.4 °F 29.90 in NW 12.0 mph 20.0 mph 69 % 0.00 in
23:27 65.5 °F 55.4 °F 29.90 in NW 8.0 mph 22.0 mph 70 % 0.00 in
23:32 64.9 °F 54.9 °F 29.90 in WNW 16.0 mph 22.0 mph 70 % 0.00 in
23:37 64.8 °F 55.2 °F 29.90 in NNW 6.0 mph 22.0 mph 71 % 0.00 in
23:42 64.6 °F 55.0 °F 29.90 in NW 7.0 mph 21.0 mph 71 % 0.00 in
23:52 64.2 °F 55.0 °F 29.89 in NW 9.0 mph 19.0 mph 72 % 0.00 in
23:57 64.0 °F 55.2 °F 29.89 in North 7.0 mph 15.0 mph 73 % 0.00 in
Spring, Texas: Villages of Bridgestone
Compliments of Weather Underground - 3 mb

Script developed by  Jim McMurry - jmcmurry@mwt.net Adapted for the template by  Wim van der Kuil - Leuven-Template.eu

You find our weather info also at:

UK Metoffice

WeatherCloud

Weather Underground

Mid-South Weather Network

AWEKAS

Citizen Weather Observer Program (CWOP)

HAMweather, WeatherForYou, PWS Weather

Equipment we use:

Weather-station
Davis Vantage Vue

Weather-program
Meteohub

Weather-server
Debian 7.9 x86 (Guest)

Provider
DreamHost

Davis Vantage Vue

Meteohub

Debian 7.9 x86 (Guest)

DreamHost